Time;durP1;ratioP1;P1;durP2;ratioP2;P2;SDS_P1;SDS_P2;PMS_P1;PMS_P2;Temp;Humidity;BMP_temperature;BMP_pressure;BME280_temperature;BME280_humidity;BME280_pressure;Samples;Min_cycle;Max_cycle;Signal;HPM_P1;HPM_P2
2023/09/02 00:00:48;;;;;;;8.57;4.47;;;22.30;87.00;;;;;;5100408;28;20205;-62
2023/09/02 00:03:16;;;;;;;5.90;3.93;;;22.30;87.00;;;;;;5091316;28;20201;-61
2023/09/02 00:05:43;;;;;;;6.63;4.53;;;22.30;87.20;;;;;;5105890;28;20551;-62
2023/09/02 00:08:11;;;;;;;9.40;4.63;;;22.30;87.20;;;;;;5076182;28;20209;-61
2023/09/02 00:10:38;;;;;;;10.93;4.97;;;22.20;87.10;;;;;;5078533;28;20644;-61
2023/09/02 00:13:06;;;;;;;11.77;4.70;;;22.20;87.10;;;;;;5083961;28;20628;-61
2023/09/02 00:15:34;;;;;;;9.57;4.40;;;22.20;87.10;;;;;;5098322;28;20206;-62
2023/09/02 00:18:01;;;;;;;7.60;4.17;;;22.10;87.10;;;;;;5081311;28;20254;-61
2023/09/02 00:20:28;;;;;;;12.43;5.10;;;22.10;87.00;;;;;;5101266;28;20197;-61
2023/09/02 00:22:56;;;;;;;6.67;4.07;;;22.10;87.00;;;;;;5082888;28;20586;-61
2023/09/02 00:25:24;;;;;;;6.00;4.60;;;22.00;87.10;;;;;;5061065;28;20699;-62
2023/09/02 00:27:52;;;;;;;9.77;4.30;;;22.00;87.40;;;;;;5077525;28;20288;-61
2023/09/02 00:30:21;;;;;;;9.13;4.77;;;21.90;87.60;;;;;;5075120;28;20198;-61
2023/09/02 00:32:49;;;;;;;6.53;4.50;;;21.90;87.80;;;;;;5051638;28;20206;-61
2023/09/02 00:35:17;;;;;;;6.03;4.30;;;21.90;87.90;;;;;;5061942;28;20278;-61
2023/09/02 00:37:44;;;;;;;6.27;4.33;;;21.80;88.00;;;;;;5076864;28;20582;-61
2023/09/02 00:40:14;;;;;;;6.00;4.40;;;21.80;88.10;;;;;;5059976;28;20559;-61
2023/09/02 00:42:44;;;;;;;6.60;4.67;;;21.80;88.30;;;;;;5054282;28;20202;-61
2023/09/02 00:45:12;;;;;;;7.70;4.70;;;21.80;88.50;;;;;;5052388;28;20197;-61
2023/09/02 00:47:40;;;;;;;11.77;4.13;;;21.70;88.50;;;;;;5071175;28;20209;-61
2023/09/02 00:50:07;;;;;;;7.73;4.20;;;21.70;88.80;;;;;;5056142;28;20193;-61
2023/09/02 00:52:36;;;;;;;8.70;4.40;;;21.60;89.10;;;;;;5062592;28;20217;-61
2023/09/02 00:55:04;;;;;;;5.23;3.87;;;21.60;89.30;;;;;;5075754;28;20190;-61
2023/09/02 00:57:32;;;;;;;8.40;4.50;;;21.60;89.40;;;;;;5073247;28;20201;-61
2023/09/02 01:00:03;;;;;;;6.50;4.67;;;21.50;89.50;;;;;;5060755;28;20233;-61
2023/09/02 01:02:32;;;;;;;8.67;4.47;;;21.50;89.50;;;;;;5071402;28;20636;-61
2023/09/02 01:05:00;;;;;;;8.00;4.70;;;21.50;89.60;;;;;;5082769;28;20276;-61
2023/09/02 01:07:29;;;;;;;11.40;4.07;;;21.40;89.60;;;;;;5054570;28;20334;-61
2023/09/02 01:09:56;;;;;;;7.73;4.53;;;21.40;89.90;;;;;;5046979;28;20691;-61
2023/09/02 01:12:24;;;;;;;9.10;4.63;;;21.40;90.00;;;;;;5074960;28;20594;-61
2023/09/02 01:14:52;;;;;;;8.00;5.10;;;21.30;90.00;;;;;;5068727;28;20258;-61
2023/09/02 01:17:19;;;;;;;8.90;5.00;;;21.30;90.10;;;;;;5082686;28;20285;-61
2023/09/02 01:19:49;;;;;;;7.17;5.37;;;21.30;90.20;;;;;;5070638;28;20199;-61
2023/09/02 01:22:34;;;;;;;5.73;5.03;;;21.20;90.30;;;;;;5079866;28;20319;-62
2023/09/02 01:25:20;;;;;;;5.57;4.93;;;21.20;90.40;;;;;;5074676;28;20205;-62
2023/09/02 01:27:53;;;;;;;5.20;4.50;;;21.20;90.50;;;;;;5094784;28;20269;-61
2023/09/02 01:30:27;;;;;;;11.07;4.53;;;21.10;90.50;;;;;;5070819;28;20201;-62
2023/09/02 01:32:57;;;;;;;6.20;5.20;;;21.10;90.60;;;;;;5067755;28;20583;-62
2023/09/02 01:35:28;;;;;;;12.43;6.07;;;21.10;90.70;;;;;;5066229;28;20193;-61
2023/09/02 01:37:57;;;;;;;10.17;6.00;;;21.00;90.70;;;;;;5090858;28;20600;-61
2023/09/02 01:40:27;;;;;;;6.63;4.97;;;21.10;90.80;;;;;;5076745;28;20592;-61
2023/09/02 01:42:58;;;;;;;6.60;6.00;;;21.00;90.80;;;;;;5091976;28;20220;-62
2023/09/02 01:45:30;;;;;;;6.37;5.00;;;21.00;90.90;;;;;;5070902;28;20208;-61
2023/09/02 01:47:59;;;;;;;13.83;6.20;;;21.00;91.00;;;;;;5079339;28;20296;-63
2023/09/02 01:50:29;;;;;;;9.77;6.00;;;21.00;91.00;;;;;;5097135;28;20196;-62
2023/09/02 01:52:58;;;;;;;11.53;5.10;;;20.90;91.10;;;;;;5079223;28;20217;-61
2023/09/02 01:55:26;;;;;;;9.03;5.53;;;20.90;91.10;;;;;;5082760;27;20200;-61
2023/09/02 01:57:59;;;;;;;10.20;4.80;;;21.00;91.20;;;;;;5090081;28;20193;-61
2023/09/02 02:00:27;;;;;;;5.97;5.37;;;20.90;91.20;;;;;;5095635;28;20239;-61
2023/09/02 02:02:55;;;;;;;5.53;5.03;;;20.90;91.20;;;;;;5107914;27;20216;-62
2023/09/02 02:05:39;;;;;;;9.90;5.37;;;20.90;91.20;;;;;;5091866;28;20665;-61
2023/09/02 02:08:16;;;;;;;8.53;5.30;;;20.90;91.30;;;;;;5094282;28;20196;-61
2023/09/02 02:10:45;;;;;;;9.67;5.30;;;20.90;91.30;;;;;;5100960;28;20638;-61
2023/09/02 02:13:13;;;;;;;5.90;5.30;;;20.90;91.40;;;;;;5089096;28;20196;-61
2023/09/02 02:15:40;;;;;;;7.70;5.27;;;20.80;91.40;;;;;;5095933;28;20634;-61
2023/09/02 02:18:08;;;;;;;6.20;5.60;;;20.80;91.40;;;;;;5096430;28;20213;-61
2023/09/02 02:20:48;;;;;;;8.53;5.27;;;20.80;91.40;;;;;;5103386;28;20224;-62
2023/09/02 02:23:15;;;;;;;6.50;5.70;;;20.70;91.50;;;;;;5062373;28;20244;-61
2023/09/02 02:25:43;;;;;;;8.00;5.13;;;20.70;91.50;;;;;;5071712;28;20204;-61
2023/09/02 02:28:10;;;;;;;7.70;6.00;;;20.70;91.60;;;;;;5055774;28;20254;-61
2023/09/02 02:30:38;;;;;;;6.30;5.67;;;20.70;91.60;;;;;;5071560;28;20230;-61
2023/09/02 02:33:05;;;;;;;6.30;5.70;;;20.70;91.70;;;;;;5069056;28;20204;-62
2023/09/02 02:35:33;;;;;;;13.37;7.23;;;20.60;91.70;;;;;;5056136;28;20209;-61
2023/09/02 02:38:00;;;;;;;11.37;7.50;;;20.60;91.70;;;;;;5059094;28;20632;-61
2023/09/02 02:40:28;;;;;;;14.23;9.50;;;20.60;91.70;;;;;;5081760;28;20656;-62
2023/09/02 02:42:56;;;;;;;13.73;8.83;;;20.60;91.70;;;;;;5067459;28;20223;-62
2023/09/02 02:45:23;;;;;;;13.87;9.07;;;20.60;91.80;;;;;;5074429;28;20433;-62
2023/09/02 02:47:51;;;;;;;10.60;8.70;;;20.60;91.90;;;;;;5058614;28;20200;-62
2023/09/02 02:50:18;;;;;;;9.63;8.67;;;20.50;92.00;;;;;;5059381;28;20644;-61
2023/09/02 02:52:46;;;;;;;11.37;9.37;;;20.60;92.10;;;;;;5058939;28;20372;-61
2023/09/02 02:55:14;;;;;;;10.03;8.73;;;20.60;92.10;;;;;;5052734;28;20243;-62
2023/09/02 02:57:43;;;;;;;11.43;8.40;;;20.50;92.10;;;;;;5073858;28;20196;-61
2023/09/02 03:00:11;;;;;;;14.77;9.00;;;20.60;92.50;;;;;;5055534;28;20197;-61
2023/09/02 03:02:40;;;;;;;9.97;8.97;;;20.50;92.20;;;;;;5071880;28;20205;-62
2023/09/02 03:05:09;;;;;;;11.40;8.80;;;20.50;92.20;;;;;;5053179;28;20254;-62
2023/09/02 03:07:39;;;;;;;12.27;9.47;;;20.50;92.30;;;;;;5072140;28;20288;-61
2023/09/02 03:10:07;;;;;;;11.40;9.47;;;20.50;92.30;;;;;;5070321;28;20269;-62
2023/09/02 03:12:35;;;;;;;10.20;8.97;;;20.50;92.30;;;;;;5073662;28;20227;-61
2023/09/02 03:15:07;;;;;;;12.10;10.10;;;20.50;92.40;;;;;;5050614;28;20611;-61
2023/09/02 03:17:35;;;;;;;14.10;9.67;;;20.50;92.40;;;;;;5072608;28;20647;-61
2023/09/02 03:20:06;;;;;;;10.17;9.17;;;20.50;92.40;;;;;;5058569;28;20202;-61
2023/09/02 03:22:35;;;;;;;11.60;9.77;;;20.50;92.40;;;;;;5059373;28;20236;-61
2023/09/02 03:25:04;;;;;;;13.23;9.47;;;20.50;92.40;;;;;;5051258;28;20205;-61
2023/09/02 03:27:31;;;;;;;20.50;9.13;;;20.50;92.40;;;;;;5072343;28;20212;-61
2023/09/02 03:29:59;;;;;;;10.63;9.30;;;20.40;92.30;;;;;;5067650;28;20209;-61
2023/09/02 03:32:30;;;;;;;10.07;8.97;;;20.40;92.30;;;;;;5069402;28;20233;-61
2023/09/02 03:34:57;;;;;;;10.57;9.47;;;20.40;92.40;;;;;;5081913;28;20199;-61
2023/09/02 03:37:24;;;;;;;10.63;9.33;;;20.40;92.40;;;;;;5082450;28;20216;-61
2023/09/02 03:39:53;;;;;;;9.80;8.80;;;20.40;92.40;;;;;;5085221;28;20240;-61
2023/09/02 03:42:20;;;;;;;10.43;9.43;;;20.40;92.30;;;;;;5066066;28;20217;-61
2023/09/02 03:44:48;;;;;;;10.80;9.70;;;20.40;92.30;;;;;;5081894;28;20208;-61
2023/09/02 03:47:15;;;;;;;10.60;8.93;;;20.40;92.30;;;;;;5075890;28;20259;-61
2023/09/02 03:49:43;;;;;;;13.70;9.77;;;20.30;92.30;;;;;;5076480;28;20205;-61
2023/09/02 03:52:10;;;;;;;14.30;9.30;;;20.40;92.30;;;;;;5086670;28;20253;-61
2023/09/02 03:54:38;;;;;;;15.23;10.33;;;20.40;92.30;;;;;;5083532;28;20244;-61
2023/09/02 03:57:05;;;;;;;13.10;9.97;;;20.30;92.20;;;;;;5068223;28;20221;-61
2023/09/02 03:59:32;;;;;;;15.53;9.73;;;20.30;92.10;;;;;;5078509;28;20201;-61
2023/09/02 04:01:59;;;;;;;15.13;9.90;;;20.30;92.00;;;;;;5087200;28;20254;-61
2023/09/02 04:04:27;;;;;;;15.30;9.80;;;20.30;91.90;;;;;;5086735;28;20193;-61
2023/09/02 04:06:54;;;;;;;11.17;8.87;;;20.30;91.90;;;;;;5079530;28;20237;-61
2023/09/02 04:09:21;;;;;;;12.33;8.83;;;20.30;92.00;;;;;;5067440;28;20209;-61
2023/09/02 04:11:48;;;;;;;15.13;9.67;;;20.20;92.00;;;;;;5073747;28;20266;-61
2023/09/02 04:14:15;;;;;;;11.37;8.80;;;20.20;92.10;;;;;;5059634;28;20275;-61
2023/09/02 04:16:42;;;;;;;11.60;9.17;;;20.20;92.10;;;;;;5071280;28;20205;-61
2023/09/02 04:19:09;;;;;;;9.53;8.23;;;20.20;92.10;;;;;;5084095;28;20201;-61
2023/09/02 04:21:36;;;;;;;9.57;8.50;;;20.20;92.10;;;;;;5073698;28;20438;-61
2023/09/02 04:24:04;;;;;;;10.53;9.30;;;20.20;92.10;;;;;;5105920;28;20639;-62
2023/09/02 04:26:31;;;;;;;14.30;9.77;;;20.10;92.10;;;;;;5089015;28;20204;-61
2023/09/02 04:29:00;;;;;;;14.07;10.00;;;20.10;92.10;;;;;;5104749;28;20574;-61
2023/09/02 04:31:27;;;;;;;15.70;11.30;;;20.10;92.10;;;;;;5111385;28;20207;-61
2023/09/02 04:33:54;;;;;;;15.10;10.33;;;20.10;92.00;;;;;;5095892;28;20227;-61
2023/09/02 04:36:21;;;;;;;11.37;10.30;;;20.00;92.00;;;;;;5105252;28;20200;-61
2023/09/02 04:38:51;;;;;;;12.33;10.97;;;20.00;92.20;;;;;;5084857;28;20651;-61
2023/09/02 04:41:18;;;;;;;11.90;10.80;;;20.00;92.30;;;;;;5090776;28;20203;-61
2023/09/02 04:43:48;;;;;;;13.97;11.77;;;20.00;92.30;;;;;;5091650;28;20208;-61
2023/09/02 04:46:16;;;;;;;13.67;12.27;;;20.00;92.40;;;;;;5093227;28;20191;-62
2023/09/02 04:48:46;;;;;;;15.07;12.70;;;20.00;92.40;;;;;;5095354;28;20560;-61
2023/09/02 04:51:16;;;;;;;19.33;13.63;;;20.00;92.40;;;;;;5086838;28;20292;-62
2023/09/02 04:53:43;;;;;;;15.50;13.87;;;20.00;92.40;;;;;;5095124;28;20214;-61
2023/09/02 04:56:10;;;;;;;19.37;14.60;;;19.90;92.40;;;;;;5091129;28;20224;-61
2023/09/02 04:58:39;;;;;;;19.33;14.50;;;20.00;92.50;;;;;;5094876;28;20209;-61
2023/09/02 05:01:13;;;;;;;18.97;15.83;;;20.00;92.60;;;;;;5095019;28;20227;-61
2023/09/02 05:03:47;;;;;;;18.13;15.43;;;20.00;92.60;;;;;;5095824;28;20667;-61
2023/09/02 05:06:15;;;;;;;18.53;15.40;;;20.00;92.60;;;;;;5090871;28;20215;-61
2023/09/02 05:08:44;;;;;;;17.40;15.30;;;20.10;92.60;;;;;;5094949;28;20216;-61
2023/09/02 05:11:13;;;;;;;17.53;15.60;;;20.10;92.50;;;;;;5094864;28;20196;-61
2023/09/02 05:13:40;;;;;;;16.30;14.60;;;20.10;92.50;;;;;;5092446;28;20279;-62
2023/09/02 05:16:07;;;;;;;16.60;14.90;;;20.10;92.60;;;;;;5091454;28;20204;-61
2023/09/02 05:18:35;;;;;;;17.20;15.20;;;20.10;92.70;;;;;;5092395;28;20208;-61
2023/09/02 05:21:02;;;;;;;18.63;14.50;;;20.20;92.70;;;;;;5103806;28;20590;-61
2023/09/02 05:23:29;;;;;;;16.60;14.63;;;20.20;92.70;;;;;;5072165;28;20243;-61
2023/09/02 05:25:57;;;;;;;16.83;15.00;;;20.30;92.70;;;;;;5071083;28;20209;-61
2023/09/02 05:28:25;;;;;;;16.13;14.63;;;20.40;92.70;;;;;;5073571;28;20224;-61
2023/09/02 05:30:56;;;;;;;19.40;14.50;;;20.40;92.70;;;;;;5073599;28;20213;-61
2023/09/02 05:33:23;;;;;;;16.37;14.67;;;20.50;92.70;;;;;;5083850;28;20569;-61
2023/09/02 05:35:51;;;;;;;18.17;14.23;;;20.60;92.60;;;;;;5084552;28;20200;-61
2023/09/02 05:38:18;;;;;;;18.13;13.20;;;20.70;92.60;;;;;;5085580;28;20613;-61
2023/09/02 05:40:45;;;;;;;14.57;12.90;;;20.80;92.40;;;;;;5090353;28;20591;-61
2023/09/02 05:43:13;;;;;;;18.37;13.30;;;20.90;92.40;;;;;;5069464;28;20217;-61
2023/09/02 05:45:40;;;;;;;20.43;13.10;;;21.00;92.30;;;;;;5080407;28;20540;-61
2023/09/02 05:48:07;;;;;;;15.23;11.80;;;21.10;92.10;;;;;;5085460;28;20201;-61
2023/09/02 05:50:35;;;;;;;15.70;12.07;;;21.20;92.00;;;;;;5088514;28;20202;-61
2023/09/02 05:53:02;;;;;;;15.20;11.67;;;21.30;91.90;;;;;;5085293;28;20297;-61
2023/09/02 05:55:29;;;;;;;14.43;11.80;;;21.50;91.70;;;;;;5083699;28;20597;-61
2023/09/02 05:57:56;;;;;;;13.33;11.53;;;21.60;91.50;;;;;;5083654;28;20629;-61
2023/09/02 06:00:23;;;;;;;18.23;11.63;;;21.80;91.40;;;;;;5086667;28;20636;-61
2023/09/02 06:02:50;;;;;;;15.17;12.03;;;22.00;91.20;;;;;;5087523;28;20216;-61
2023/09/02 06:05:17;;;;;;;15.63;11.50;;;22.20;90.80;;;;;;5085222;28;20204;-61
2023/09/02 06:07:44;;;;;;;13.90;10.63;;;22.40;90.30;;;;;;5079491;28;20258;-61
2023/09/02 06:10:11;;;;;;;15.87;11.40;;;22.70;89.70;;;;;;5082834;28;20263;-61
2023/09/02 06:12:38;;;;;;;13.60;10.63;;;22.90;88.70;;;;;;5084316;28;20308;-61
2023/09/02 06:15:05;;;;;;;15.03;10.33;;;23.10;87.50;;;;;;5082832;28;20228;-61
2023/09/02 06:17:33;;;;;;;15.10;9.80;;;23.30;86.50;;;;;;5081254;28;20275;-61
2023/09/02 06:20:00;;;;;;;14.17;9.97;;;23.40;85.90;;;;;;5083612;28;20655;-62
2023/09/02 06:22:28;;;;;;;10.80;8.67;;;23.40;85.30;;;;;;5091994;28;20578;-61
2023/09/02 06:24:55;;;;;;;13.07;9.47;;;23.40;83.90;;;;;;5108355;28;20200;-61
2023/09/02 06:27:22;;;;;;;22.03;10.00;;;23.40;83.20;;;;;;5098927;28;20288;-62
2023/09/02 06:29:49;;;;;;;12.00;8.73;;;23.30;83.10;;;;;;5088942;28;20707;-61
2023/09/02 06:32:16;;;;;;;13.80;10.30;;;23.20;83.70;;;;;;5104094;28;20224;-61
2023/09/02 06:34:43;;;;;;;12.70;9.97;;;23.20;84.20;;;;;;5103789;28;20193;-61
2023/09/02 06:37:10;;;;;;;15.60;9.30;;;23.10;84.50;;;;;;5099421;28;20604;-61
2023/09/02 06:39:37;;;;;;;13.43;9.67;;;23.20;84.10;;;;;;5098418;28;20201;-61
2023/09/02 06:42:05;;;;;;;13.10;9.60;;;23.20;83.90;;;;;;5106384;28;20320;-61
2023/09/02 06:44:34;;;;;;;10.30;9.20;;;23.20;83.70;;;;;;5090724;28;20253;-61
2023/09/02 06:47:01;;;;;;;11.33;9.60;;;23.30;83.50;;;;;;5102718;28;20197;-61
2023/09/02 06:49:32;;;;;;;9.73;8.80;;;23.30;83.50;;;;;;5098675;28;20221;-61
2023/09/02 06:51:59;;;;;;;15.57;9.57;;;23.30;83.50;;;;;;5103113;28;20258;-61
2023/09/02 06:54:26;;;;;;;14.23;9.10;;;23.40;83.60;;;;;;5104602;28;20206;-61
2023/09/02 06:56:53;;;;;;;11.93;8.73;;;23.50;83.60;;;;;;5101417;28;20208;-61
2023/09/02 06:59:20;;;;;;;12.93;9.50;;;23.60;83.30;;;;;;5100822;28;20236;-61
2023/09/02 07:01:47;;;;;;;13.23;10.27;;;23.70;82.20;;;;;;5103199;28;20550;-61
2023/09/02 07:04:14;;;;;;;14.10;9.67;;;23.70;81.90;;;;;;5109827;27;20196;-61
2023/09/02 07:06:41;;;;;;;10.23;9.13;;;23.80;81.80;;;;;;5100789;28;20216;-61
2023/09/02 07:09:08;;;;;;;16.33;10.67;;;23.80;81.50;;;;;;5098602;28;20189;-61
2023/09/02 07:11:36;;;;;;;13.37;10.10;;;23.90;81.20;;;;;;5096944;28;20635;-61
2023/09/02 07:14:03;;;;;;;10.43;9.30;;;23.90;80.80;;;;;;5108573;28;20210;-61
2023/09/02 07:16:29;;;;;;;11.03;9.70;;;24.00;81.30;;;;;;5101663;28;20200;-61
2023/09/02 07:18:58;;;;;;;11.13;10.03;;;24.10;81.10;;;;;;5101363;28;20665;-61
2023/09/02 07:21:25;;;;;;;11.87;10.33;;;24.20;80.80;;;;;;5099712;28;20287;-61
2023/09/02 07:23:53;;;;;;;10.60;9.40;;;24.30;80.50;;;;;;5104504;28;20224;-61
2023/09/02 07:26:27;;;;;;;11.80;9.67;;;24.30;80.50;;;;;;5103678;28;20585;-62
2023/09/02 07:28:54;;;;;;;17.00;10.63;;;24.50;81.00;;;;;;5102994;28;20228;-61
2023/09/02 07:31:21;;;;;;;11.63;10.07;;;24.60;80.80;;;;;;5103541;28;20217;-61
2023/09/02 07:33:48;;;;;;;11.23;9.93;;;24.80;80.10;;;;;;5099627;28;20728;-61
2023/09/02 07:36:15;;;;;;;12.20;9.73;;;24.90;79.70;;;;;;5103799;28;20526;-61
2023/09/02 07:38:44;;;;;;;12.00;10.63;;;25.00;79.30;;;;;;5089047;28;20200;-61
2023/09/02 07:41:11;;;;;;;11.23;9.47;;;25.20;78.70;;;;;;5103222;28;20305;-61
2023/09/02 07:43:38;;;;;;;10.90;9.83;;;25.20;77.90;;;;;;5104871;28;20215;-61
2023/09/02 07:46:05;;;;;;;15.17;12.63;;;25.40;78.00;;;;;;5106911;28;20215;-61
2023/09/02 07:48:33;;;;;;;14.50;12.83;;;25.40;77.30;;;;;;5103752;28;20212;-61
2023/09/02 07:51:00;;;;;;;16.53;11.03;;;25.50;77.30;;;;;;5102082;28;20220;-61
2023/09/02 07:53:28;;;;;;;13.80;11.97;;;25.60;76.80;;;;;;5100561;28;20224;-61
2023/09/02 07:55:56;;;;;;;19.07;12.10;;;25.70;76.80;;;;;;5095350;28;20638;-61
2023/09/02 07:58:23;;;;;;;13.63;12.13;;;25.80;77.00;;;;;;5093716;28;20206;-61
2023/09/02 08:00:50;;;;;;;13.40;11.67;;;26.00;76.70;;;;;;5099745;28;20205;-61
2023/09/02 08:03:17;;;;;;;19.10;12.37;;;26.20;76.20;;;;;;5103543;28;20199;-61
2023/09/02 08:05:44;;;;;;;16.57;12.37;;;26.30;75.50;;;;;;5109421;28;20196;-61
2023/09/02 08:08:11;;;;;;;13.80;11.83;;;26.40;75.50;;;;;;5104377;28;20575;-61
2023/09/02 08:10:39;;;;;;;13.97;12.20;;;26.60;75.30;;;;;;5101251;28;20200;-61
2023/09/02 08:13:07;;;;;;;12.77;11.33;;;26.80;74.80;;;;;;5106535;28;20228;-61
2023/09/02 08:15:37;;;;;;;17.97;11.50;;;26.90;74.10;;;;;;5108888;28;20205;-61
2023/09/02 08:18:04;;;;;;;16.13;13.00;;;27.10;73.60;;;;;;5105841;28;20232;-61
2023/09/02 08:20:32;;;;;;;13.43;12.03;;;27.30;73.20;;;;;;5103740;28;20264;-61
2023/09/02 08:22:59;;;;;;;16.07;11.20;;;27.40;72.50;;;;;;5104111;28;20236;-61
2023/09/02 08:25:26;;;;;;;14.30;12.27;;;27.50;72.20;;;;;;5105986;28;20236;-61
2023/09/02 08:27:53;;;;;;;13.77;11.97;;;27.70;71.60;;;;;;5103608;28;20201;-61
2023/09/02 08:30:20;;;;;;;15.20;12.13;;;27.80;70.70;;;;;;5074694;28;20201;-61
2023/09/02 08:32:47;;;;;;;14.47;12.43;;;28.00;70.00;;;;;;5105749;28;20212;-61
2023/09/02 08:35:14;;;;;;;14.63;12.53;;;28.10;69.80;;;;;;5107270;28;20194;-61
2023/09/02 08:37:41;;;;;;;13.33;11.93;;;28.20;69.50;;;;;;5106690;28;20212;-61
2023/09/02 08:40:08;;;;;;;15.07;12.53;;;28.30;69.10;;;;;;5107341;28;20197;-61
2023/09/02 08:42:36;;;;;;;14.77;11.67;;;28.40;68.50;;;;;;5107512;28;20204;-62
2023/09/02 08:45:08;;;;;;;12.73;11.17;;;28.50;68.10;;;;;;5107165;28;20245;-62
2023/09/02 08:47:39;;;;;;;14.03;11.97;;;28.50;67.80;;;;;;5110417;28;20292;-61
2023/09/02 08:50:08;;;;;;;15.47;12.03;;;28.70;68.30;;;;;;5105820;28;20216;-61
2023/09/02 08:52:37;;;;;;;12.87;10.63;;;28.80;68.30;;;;;;5107600;28;20215;-62
2023/09/02 08:55:04;;;;;;;14.00;10.40;;;29.00;68.00;;;;;;5105679;28;20192;-61
2023/09/02 08:57:33;;;;;;;12.43;10.43;;;29.00;66.50;;;;;;5102969;28;20197;-61
2023/09/02 09:00:00;;;;;;;17.27;11.30;;;29.10;65.90;;;;;;5104465;28;20201;-62
2023/09/02 09:02:28;;;;;;;16.20;10.47;;;29.10;64.30;;;;;;5102887;27;20206;-61
2023/09/02 09:04:58;;;;;;;12.57;9.20;;;29.20;64.20;;;;;;5110767;28;20205;-61
2023/09/02 09:07:27;;;;;;;10.77;9.07;;;29.30;63.70;;;;;;5105348;28;20268;-61
2023/09/02 09:09:58;;;;;;;13.33;8.63;;;29.30;63.80;;;;;;5105583;28;20193;-61
2023/09/02 09:12:28;;;;;;;12.70;9.07;;;29.40;63.30;;;;;;5106952;28;20192;-61
2023/09/02 09:14:58;;;;;;;11.00;9.70;;;29.50;63.50;;;;;;5108313;28;20492;-61
2023/09/02 09:17:25;;;;;;;9.97;8.40;;;29.60;63.90;;;;;;5106908;28;20192;-61
2023/09/02 09:19:53;;;;;;;13.17;8.70;;;29.70;63.20;;;;;;5098983;28;20209;-61
2023/09/02 09:22:20;;;;;;;12.33;10.40;;;29.80;63.00;;;;;;5105940;28;20241;-61
2023/09/02 09:24:47;;;;;;;11.87;9.17;;;29.90;62.30;;;;;;5106459;28;20219;-61
2023/09/02 09:27:16;;;;;;;14.13;8.47;;;29.90;62.50;;;;;;5106721;28;20262;-61
2023/09/02 09:29:43;;;;;;;11.10;9.37;;;29.90;62.80;;;;;;5101505;28;20196;-62
2023/09/02 09:32:12;;;;;;;12.23;10.77;;;30.00;63.40;;;;;;5106283;28;20523;-62
2023/09/02 09:34:44;;;;;;;11.37;8.83;;;30.20;62.50;;;;;;5105215;28;20290;-62
2023/09/02 09:37:11;;;;;;;17.83;9.23;;;30.20;61.70;;;;;;5106834;28;20204;-62
2023/09/02 09:39:46;;;;;;;15.00;9.23;;;30.30;62.00;;;;;;5106317;28;20216;-62
2023/09/02 09:42:15;;;;;;;14.03;10.63;;;30.40;62.50;;;;;;5101314;28;20659;-61
2023/09/02 09:44:55;;;;;;;11.73;10.23;;;30.50;61.70;;;;;;5103457;28;20225;-62
2023/09/02 09:47:24;;;;;;;11.77;9.90;;;30.40;61.90;;;;;;5105059;28;20196;-61
2023/09/02 09:49:52;;;;;;;14.47;9.60;;;30.50;62.20;;;;;;5103535;28;20234;-61
2023/09/02 09:52:20;;;;;;;16.50;9.80;;;30.50;62.20;;;;;;5101781;28;20193;-62
2023/09/02 09:54:52;;;;;;;9.73;8.67;;;30.60;61.60;;;;;;5102304;28;20220;-62
2023/09/02 09:57:36;;;;;;;12.13;8.67;;;30.70;61.60;;;;;;5106239;28;20739;-62
2023/09/02 10:00:06;;;;;;;12.37;8.73;;;30.80;61.20;;;;;;5104231;28;20620;-62
2023/09/02 10:02:34;;;;;;;14.83;8.50;;;31.00;60.80;;;;;;5103638;27;20297;-62
2023/09/02 10:05:02;;;;;;;10.90;7.87;;;31.00;60.10;;;;;;5106046;28;20237;-61
2023/09/02 10:07:32;;;;;;;13.70;7.57;;;31.10;60.30;;;;;;5106502;28;20212;-62
2023/09/02 10:10:04;;;;;;;11.77;7.90;;;31.10;60.40;;;;;;5100679;28;20209;-62
2023/09/02 10:12:35;;;;;;;11.60;9.10;;;31.20;60.10;;;;;;5099961;28;20212;-62
2023/09/02 10:15:06;;;;;;;7.77;7.00;;;31.30;59.30;;;;;;5101709;28;20208;-62
2023/09/02 10:17:36;;;;;;;15.90;7.37;;;31.30;59.70;;;;;;5104685;28;20188;-62
2023/09/02 10:20:05;;;;;;;8.03;7.23;;;31.40;59.20;;;;;;5103370;28;20197;-62
2023/09/02 10:22:35;;;;;;;11.80;8.13;;;31.40;58.40;;;;;;5100749;28;20237;-62
2023/09/02 10:25:29;;;;;;;13.50;6.77;;;31.40;58.00;;;;;;5102866;28;20554;-62
2023/09/02 10:28:03;;;;;;;10.57;6.43;;;31.40;58.50;;;;;;5104003;28;20574;-62
2023/09/02 10:31:03;;;;;;;7.50;5.83;;;31.30;57.50;;;;;;5100182;28;20200;-62
2023/09/02 10:33:38;;;;;;;12.00;7.30;;;31.40;58.00;;;;;;5074056;28;20734;-62
2023/09/02 10:36:07;;;;;;;9.63;6.03;;;31.40;57.50;;;;;;5097166;28;20215;-62
2023/09/02 10:38:40;;;;;;;8.20;5.87;;;31.40;58.20;;;;;;5105859;28;20296;-62
2023/09/02 10:41:17;;;;;;;10.03;5.57;;;31.40;58.50;;;;;;5103808;28;20192;-62
2023/09/02 10:43:46;;;;;;;11.33;6.07;;;31.60;58.50;;;;;;5099166;28;20201;-62
2023/09/02 10:46:13;;;;;;;9.90;7.23;;;31.70;58.00;;;;;;5101896;28;20619;-62
2023/09/02 10:48:43;;;;;;;11.57;4.83;;;31.80;57.00;;;;;;5108215;28;20667;-62
2023/09/02 10:51:11;;;;;;;10.07;4.83;;;31.80;57.40;;;;;;5103985;28;20200;-62
2023/09/02 10:53:47;;;;;;;5.73;3.90;;;31.90;57.50;;;;;;5100781;28;20224;-61
2023/09/02 10:56:27;;;;;;;11.53;3.63;;;31.90;57.00;;;;;;5097782;28;20542;-62
2023/09/02 10:58:54;;;;;;;7.03;3.70;;;32.00;56.60;;;;;;5108528;28;20188;-62
2023/09/02 11:01:22;;;;;;;6.43;4.43;;;32.10;55.40;;;;;;5099176;28;20565;-62
2023/09/02 11:03:51;;;;;;;12.03;4.70;;;32.00;53.90;;;;;;5100357;27;20284;-62
2023/09/02 11:06:18;;;;;;;7.00;4.10;;;31.90;54.80;;;;;;5100750;28;20216;-62
2023/09/02 11:08:47;;;;;;;11.07;4.80;;;31.90;54.60;;;;;;5105592;28;20212;-62
2023/09/02 11:11:14;;;;;;;4.93;3.60;;;31.80;53.70;;;;;;5105146;28;20631;-62
2023/09/02 11:14:07;;;;;;;8.63;4.93;;;31.60;54.60;;;;;;5101492;28;20310;-62
2023/09/02 11:16:35;;;;;;;6.23;3.80;;;31.60;55.70;;;;;;5083929;28;20223;-62
2023/09/02 11:19:08;;;;;;;4.30;3.67;;;31.60;55.60;;;;;;5110240;28;20280;-63
2023/09/02 11:21:48;;;;;;;8.80;4.40;;;31.70;55.00;;;;;;5102146;28;20197;-62
2023/09/02 11:24:24;;;;;;;6.20;4.77;;;31.70;54.70;;;;;;5106396;28;20203;-63
2023/09/02 11:26:59;;;;;;;10.20;4.23;;;31.70;54.60;;;;;;5106198;28;20646;-62
2023/09/02 11:29:28;;;;;;;7.17;4.10;;;31.70;54.10;;;;;;5103150;28;20215;-62
2023/09/02 11:32:04;;;;;;;6.73;3.93;;;31.70;53.30;;;;;;5105188;28;20196;-62
2023/09/02 11:34:32;;;;;;;3.47;3.13;;;31.70;54.00;;;;;;5106510;28;20273;-62
2023/09/02 11:37:00;;;;;;;6.20;3.40;;;31.70;54.80;;;;;;5109453;28;20203;-62
2023/09/02 11:39:30;;;;;;;13.63;4.00;;;31.70;53.40;;;;;;5101518;28;20558;-63
2023/09/02 11:42:06;;;;;;;5.67;3.70;;;31.60;53.40;;;;;;5101426;28;20279;-62
2023/09/02 11:44:34;;;;;;;11.77;3.17;;;31.60;52.50;;;;;;5107255;28;20319;-63
2023/09/02 11:47:03;;;;;;;4.57;2.97;;;31.50;53.30;;;;;;5102506;28;20647;-62
2023/09/02 11:49:30;;;;;;;6.63;3.20;;;31.50;53.90;;;;;;5111069;28;20209;-62
2023/09/02 11:51:58;;;;;;;5.03;2.77;;;31.60;53.00;;;;;;5101684;28;20214;-62
2023/09/02 11:54:26;;;;;;;7.00;3.10;;;31.70;53.40;;;;;;5097670;28;20212;-62
2023/09/02 11:57:02;;;;;;;5.17;2.90;;;31.70;53.10;;;;;;5106308;28;20200;-62
2023/09/02 11:59:29;;;;;;;5.07;2.30;;;31.90;52.60;;;;;;5106149;28;20199;-63
2023/09/02 12:02:15;;;;;;;5.17;3.00;;;31.90;51.90;;;;;;5102920;28;20192;-63
2023/09/02 12:04:47;;;;;;;5.80;2.73;;;32.00;50.60;;;;;;5107534;28;20279;-62
2023/09/02 12:07:16;;;;;;;9.40;2.80;;;32.10;51.00;;;;;;5109288;28;20188;-65
2023/09/02 12:09:43;;;;;;;5.93;3.10;;;32.20;51.50;;;;;;5107252;28;20205;-62
2023/09/02 12:12:12;;;;;;;3.23;2.80;;;32.30;51.30;;;;;;5104715;28;20622;-62
2023/09/02 12:14:40;;;;;;;4.43;2.83;;;32.40;51.30;;;;;;5104154;28;20240;-62
2023/09/02 12:17:08;;;;;;;7.13;2.70;;;32.50;50.80;;;;;;5108625;28;20193;-62
2023/09/02 12:19:35;;;;;;;4.97;2.53;;;32.60;50.20;;;;;;5107978;28;20201;-63
2023/09/02 12:22:03;;;;;;;4.70;3.07;;;32.60;50.30;;;;;;5104693;28;20679;-63
2023/09/02 12:24:30;;;;;;;14.03;2.73;;;32.60;50.70;;;;;;5104601;28;20270;-63
2023/09/02 12:26:57;;;;;;;3.60;2.40;;;32.60;50.30;;;;;;5105904;28;20224;-63
2023/09/02 12:29:25;;;;;;;9.73;3.00;;;32.70;49.80;;;;;;5095288;28;20201;-63
2023/09/02 12:31:57;;;;;;;8.00;3.57;;;32.70;50.10;;;;;;5107266;28;20209;-63
2023/09/02 12:34:25;;;;;;;5.17;3.00;;;32.60;50.10;;;;;;5083693;28;20277;-62
2023/09/02 12:36:52;;;;;;;4.73;2.40;;;32.60;50.50;;;;;;5107552;28;20197;-62
2023/09/02 12:39:27;;;;;;;6.70;2.70;;;32.60;50.70;;;;;;5106536;28;20201;-62
2023/09/02 12:41:55;;;;;;;4.20;2.60;;;32.70;50.70;;;;;;5104298;28;20284;-63
2023/09/02 12:44:23;;;;;;;4.23;2.80;;;32.80;50.00;;;;;;5103152;28;20647;-63
2023/09/02 12:46:50;;;;;;;4.07;2.60;;;32.80;49.60;;;;;;5106636;28;20213;-63